sensor_id;sensor_type;location;lat;lon;timestamp;pressure;altitude;pressure_sealevel;temperature;humidity
7105;BME280;3594;42.152;24.714;2023-05-03T00:00:47;60870.50;;;11.71;nan
7105;BME280;3594;42.152;24.714;2023-05-03T00:03:12;60808.88;;;11.43;nan
7105;BME280;3594;42.152;24.714;2023-05-03T00:05:38;60777.31;;;11.44;nan
7105;BME280;3594;42.152;24.714;2023-05-03T00:08:03;60813.13;;;11.44;nan
7105;BME280;3594;42.152;24.714;2023-05-03T00:10:29;60822.50;;;11.67;nan
7105;BME280;3594;42.152;24.714;2023-05-03T00:12:55;60830.88;;;11.33;nan
7105;BME280;3594;42.152;24.714;2023-05-03T00:15:21;60990.00;;;11.59;nan
7105;BME280;3594;42.152;24.714;2023-05-03T00:17:46;60873.41;;;11.64;nan
7105;BME280;3594;42.152;24.714;2023-05-03T00:20:12;60945.53;;;11.44;nan
7105;BME280;3594;42.152;24.714;2023-05-03T00:22:37;60784.38;;;11.69;nan
7105;BME280;3594;42.152;24.714;2023-05-03T00:25:02;60841.31;;;11.61;nan
7105;BME280;3594;42.152;24.714;2023-05-03T00:27:29;60863.91;;;11.51;nan
7105;BME280;3594;42.152;24.714;2023-05-03T00:29:54;60814.88;;;11.62;nan
7105;BME280;3594;42.152;24.714;2023-05-03T00:32:20;60830.50;;;11.65;nan
7105;BME280;3594;42.152;24.714;2023-05-03T00:34:52;60848.81;;;11.79;nan
7105;BME280;3594;42.152;24.714;2023-05-03T00:37:18;60826.97;;;11.50;nan
7105;BME280;3594;42.152;24.714;2023-05-03T00:39:43;60823.19;;;11.33;nan
7105;BME280;3594;42.152;24.714;2023-05-03T00:42:08;60867.13;;;11.68;nan
7105;BME280;3594;42.152;24.714;2023-05-03T00:44:34;60829.88;;;11.43;nan
7105;BME280;3594;42.152;24.714;2023-05-03T00:46:59;60798.84;;;11.71;nan
7105;BME280;3594;42.152;24.714;2023-05-03T00:49:25;60829.09;;;11.61;nan
7105;BME280;3594;42.152;24.714;2023-05-03T00:51:53;60906.56;;;11.78;nan
7105;BME280;3594;42.152;24.714;2023-05-03T00:54:20;60868.13;;;11.82;nan
7105;BME280;3594;42.152;24.714;2023-05-03T00:56:46;60802.25;;;11.48;nan
7105;BME280;3594;42.152;24.714;2023-05-03T00:59:11;60855.16;;;11.96;nan
7105;BME280;3594;42.152;24.714;2023-05-03T01:01:37;60871.81;;;11.83;nan
7105;BME280;3594;42.152;24.714;2023-05-03T01:04:04;60861.50;;;11.63;nan
7105;BME280;3594;42.152;24.714;2023-05-03T01:09:09;60899.69;;;11.81;nan
7105;BME280;3594;42.152;24.714;2023-05-03T01:14:09;60865.69;;;11.94;nan
7105;BME280;3594;42.152;24.714;2023-05-03T01:16:44;60849.50;;;11.66;nan
7105;BME280;3594;42.152;24.714;2023-05-03T01:19:25;60839.28;;;11.66;nan
7105;BME280;3594;42.152;24.714;2023-05-03T01:22:02;60841.53;;;11.68;nan
7105;BME280;3594;42.152;24.714;2023-05-03T01:24:31;60844.88;;;11.75;nan
7105;BME280;3594;42.152;24.714;2023-05-03T01:26:57;60890.31;;;12.05;nan
7105;BME280;3594;42.152;24.714;2023-05-03T01:29:23;60836.34;;;11.77;nan
7105;BME280;3594;42.152;24.714;2023-05-03T01:31:56;60812.56;;;11.90;nan
7105;BME280;3594;42.152;24.714;2023-05-03T01:34:50;60808.50;;;11.49;nan
7105;BME280;3594;42.152;24.714;2023-05-03T01:37:19;60795.59;;;11.59;nan
7105;BME280;3594;42.152;24.714;2023-05-03T01:39:58;60834.38;;;11.47;nan
7105;BME280;3594;42.152;24.714;2023-05-03T01:42:26;61007.97;;;11.54;nan
7105;BME280;3594;42.152;24.714;2023-05-03T01:44:53;60811.75;;;11.62;nan
7105;BME280;3594;42.152;24.714;2023-05-03T01:47:20;60830.66;;;11.76;nan
7105;BME280;3594;42.152;24.714;2023-05-03T01:49:45;60819.88;;;11.50;nan
7105;BME280;3594;42.152;24.714;2023-05-03T01:52:10;60842.09;;;11.68;nan
7105;BME280;3594;42.152;24.714;2023-05-03T01:54:36;60834.66;;;11.71;nan
7105;BME280;3594;42.152;24.714;2023-05-03T01:57:01;60844.31;;;11.49;nan
7105;BME280;3594;42.152;24.714;2023-05-03T01:59:27;60836.41;;;11.68;nan
7105;BME280;3594;42.152;24.714;2023-05-03T02:01:53;60849.50;;;11.15;nan
7105;BME280;3594;42.152;24.714;2023-05-03T02:04:18;60822.47;;;11.46;nan
7105;BME280;3594;42.152;24.714;2023-05-03T02:06:43;60837.81;;;11.46;nan
7105;BME280;3594;42.152;24.714;2023-05-03T02:09:09;60779.88;;;11.19;nan
7105;BME280;3594;42.152;24.714;2023-05-03T02:11:34;60829.06;;;11.40;nan
7105;BME280;3594;42.152;24.714;2023-05-03T02:14:00;60818.03;;;11.12;nan
7105;BME280;3594;42.152;24.714;2023-05-03T02:16:25;60799.94;;;11.30;nan
7105;BME280;3594;42.152;24.714;2023-05-03T02:18:51;61021.84;;;11.25;nan
7105;BME280;3594;42.152;24.714;2023-05-03T02:21:18;60807.03;;;11.30;nan
7105;BME280;3594;42.152;24.714;2023-05-03T02:23:43;60782.81;;;11.13;nan
7105;BME280;3594;42.152;24.714;2023-05-03T02:26:09;60759.97;;;10.99;nan
7105;BME280;3594;42.152;24.714;2023-05-03T02:28:34;60795.47;;;11.22;nan
7105;BME280;3594;42.152;24.714;2023-05-03T02:31:00;60838.28;;;11.30;nan
7105;BME280;3594;42.152;24.714;2023-05-03T02:33:25;60780.59;;;11.31;nan
7105;BME280;3594;42.152;24.714;2023-05-03T02:35:50;60820.91;;;11.35;nan
7105;BME280;3594;42.152;24.714;2023-05-03T02:38:16;60983.59;;;11.12;nan
7105;BME280;3594;42.152;24.714;2023-05-03T02:40:41;60814.75;;;11.25;nan
7105;BME280;3594;42.152;24.714;2023-05-03T02:43:07;60759.75;;;11.17;nan
7105;BME280;3594;42.152;24.714;2023-05-03T02:45:34;60944.22;;;11.01;nan
7105;BME280;3594;42.152;24.714;2023-05-03T02:48:01;60779.34;;;10.93;nan
7105;BME280;3594;42.152;24.714;2023-05-03T02:50:26;60749.75;;;10.99;nan
7105;BME280;3594;42.152;24.714;2023-05-03T02:52:51;60777.44;;;11.10;nan
7105;BME280;3594;42.152;24.714;2023-05-03T02:55:17;60753.78;;;10.93;nan
7105;BME280;3594;42.152;24.714;2023-05-03T02:57:42;60805.75;;;11.17;nan
7105;BME280;3594;42.152;24.714;2023-05-03T03:00:09;60780.47;;;10.94;nan
7105;BME280;3594;42.152;24.714;2023-05-03T03:02:35;60798.91;;;11.20;nan
7105;BME280;3594;42.152;24.714;2023-05-03T03:05:00;60803.59;;;11.06;nan
7105;BME280;3594;42.152;24.714;2023-05-03T03:07:25;60771.22;;;11.09;nan
7105;BME280;3594;42.152;24.714;2023-05-03T03:09:51;60783.00;;;11.20;nan
7105;BME280;3594;42.152;24.714;2023-05-03T03:12:16;60818.59;;;11.38;nan
7105;BME280;3594;42.152;24.714;2023-05-03T03:14:42;60758.13;;;11.11;nan
7105;BME280;3594;42.152;24.714;2023-05-03T03:17:09;60784.69;;;10.96;nan
7105;BME280;3594;42.152;24.714;2023-05-03T03:19:35;60757.50;;;11.15;nan
7105;BME280;3594;42.152;24.714;2023-05-03T03:22:00;60989.03;;;11.10;nan
7105;BME280;3594;42.152;24.714;2023-05-03T03:24:26;60766.47;;;10.77;nan
7105;BME280;3594;42.152;24.714;2023-05-03T03:26:51;60770.09;;;10.83;nan
7105;BME280;3594;42.152;24.714;2023-05-03T03:29:16;60782.81;;;10.87;nan
7105;BME280;3594;42.152;24.714;2023-05-03T03:31:42;60800.34;;;11.19;nan
7105;BME280;3594;42.152;24.714;2023-05-03T03:34:11;60779.75;;;11.07;nan
7105;BME280;3594;42.152;24.714;2023-05-03T03:36:36;60808.66;;;10.85;nan
7105;BME280;3594;42.152;24.714;2023-05-03T03:39:03;60821.34;;;10.94;nan
7105;BME280;3594;42.152;24.714;2023-05-03T03:41:29;60824.66;;;10.77;nan
7105;BME280;3594;42.152;24.714;2023-05-03T03:43:54;60777.44;;;10.85;nan
7105;BME280;3594;42.152;24.714;2023-05-03T03:46:20;60795.69;;;10.78;nan
7105;BME280;3594;42.152;24.714;2023-05-03T03:48:45;60752.41;;;10.64;nan
7105;BME280;3594;42.152;24.714;2023-05-03T03:51:10;60776.69;;;11.02;nan
7105;BME280;3594;42.152;24.714;2023-05-03T03:53:36;61002.81;;;10.90;nan
7105;BME280;3594;42.152;24.714;2023-05-03T03:56:01;60969.63;;;10.85;nan
7105;BME280;3594;42.152;24.714;2023-05-03T03:58:27;60793.91;;;11.11;nan
7105;BME280;3594;42.152;24.714;2023-05-03T04:00:52;60764.13;;;10.84;nan
7105;BME280;3594;42.152;24.714;2023-05-03T04:03:18;61001.66;;;10.93;nan
7105;BME280;3594;42.152;24.714;2023-05-03T04:05:43;60726.97;;;10.81;nan
7105;BME280;3594;42.152;24.714;2023-05-03T04:08:08;60984.41;;;10.85;nan
7105;BME280;3594;42.152;24.714;2023-05-03T04:10:34;60747.47;;;10.76;nan
7105;BME280;3594;42.152;24.714;2023-05-03T04:12:59;60766.78;;;11.00;nan
7105;BME280;3594;42.152;24.714;2023-05-03T04:15:25;60774.06;;;11.07;nan
7105;BME280;3594;42.152;24.714;2023-05-03T04:17:50;60768.19;;;10.74;nan
7105;BME280;3594;42.152;24.714;2023-05-03T04:20:15;60945.22;;;10.86;nan
7105;BME280;3594;42.152;24.714;2023-05-03T04:22:41;60759.06;;;11.05;nan
7105;BME280;3594;42.152;24.714;2023-05-03T04:25:10;60751.38;;;10.80;nan
7105;BME280;3594;42.152;24.714;2023-05-03T04:27:38;60774.78;;;10.94;nan
7105;BME280;3594;42.152;24.714;2023-05-03T04:30:04;60733.81;;;10.78;nan
7105;BME280;3594;42.152;24.714;2023-05-03T04:32:30;60747.31;;;11.11;nan
7105;BME280;3594;42.152;24.714;2023-05-03T04:35:05;60720.72;;;11.05;nan
7105;BME280;3594;42.152;24.714;2023-05-03T04:37:34;60709.91;;;10.84;nan
7105;BME280;3594;42.152;24.714;2023-05-03T04:40:00;60692.75;;;10.71;nan
7105;BME280;3594;42.152;24.714;2023-05-03T04:42:25;60729.69;;;11.13;nan
7105;BME280;3594;42.152;24.714;2023-05-03T04:44:51;60703.81;;;10.94;nan
7105;BME280;3594;42.152;24.714;2023-05-03T04:47:16;60640.78;;;10.51;nan
7105;BME280;3594;42.152;24.714;2023-05-03T04:49:43;60657.31;;;10.89;nan
7105;BME280;3594;42.152;24.714;2023-05-03T04:52:08;60570.38;;;10.94;nan
7105;BME280;3594;42.152;24.714;2023-05-03T04:54:34;60571.84;;;10.72;nan
7105;BME280;3594;42.152;24.714;2023-05-03T04:57:00;60551.34;;;10.77;nan
7105;BME280;3594;42.152;24.714;2023-05-03T04:59:25;60461.72;;;10.90;nan
7105;BME280;3594;42.152;24.714;2023-05-03T05:01:50;60211.91;;;10.91;nan
7105;BME280;3594;42.152;24.714;2023-05-03T05:04:16;60045.13;;;10.48;nan
7105;BME280;3594;42.152;24.714;2023-05-03T05:06:41;59815.34;;;10.60;nan
7105;BME280;3594;42.152;24.714;2023-05-03T05:09:19;59504.53;;;10.49;nan
7105;BME280;3594;42.152;24.714;2023-05-03T05:11:45;59531.13;;;10.69;nan
7105;BME280;3594;42.152;24.714;2023-05-03T05:14:10;59517.59;;;10.84;nan
7105;BME280;3594;42.152;24.714;2023-05-03T05:16:36;59260.44;;;10.54;nan
7105;BME280;3594;42.152;24.714;2023-05-03T05:19:02;59126.13;;;10.67;nan
7105;BME280;3594;42.152;24.714;2023-05-03T05:21:28;58428.28;;;10.92;nan
7105;BME280;3594;42.152;24.714;2023-05-03T05:23:53;58734.47;;;10.66;nan
7105;BME280;3594;42.152;24.714;2023-05-03T05:26:18;58319.41;;;10.41;nan
7105;BME280;3594;42.152;24.714;2023-05-03T05:28:44;58085.13;;;10.39;nan
7105;BME280;3594;42.152;24.714;2023-05-03T05:31:09;57092.94;;;10.27;nan
7105;BME280;3594;42.152;24.714;2023-05-03T05:33:35;57414.94;;;10.20;nan
7105;BME280;3594;42.152;24.714;2023-05-03T05:36:00;58315.38;;;10.25;nan
7105;BME280;3594;42.152;24.714;2023-05-03T05:38:26;57532.94;;;9.94;nan
7105;BME280;3594;42.152;24.714;2023-05-03T05:40:52;54640.56;;;10.31;nan
7105;BME280;3594;42.152;24.714;2023-05-03T05:43:17;53574.72;;;10.28;nan
7105;BME280;3594;42.152;24.714;2023-05-03T05:45:43;56506.22;;;10.31;nan
7105;BME280;3594;42.152;24.714;2023-05-03T05:48:08;56134.91;;;10.64;nan
7105;BME280;3594;42.152;24.714;2023-05-03T05:50:34;58675.69;;;10.80;nan
7105;BME280;3594;42.152;24.714;2023-05-03T05:53:00;57310.34;;;10.63;nan
7105;BME280;3594;42.152;24.714;2023-05-03T05:55:26;57857.16;;;10.50;nan
7105;BME280;3594;42.152;24.714;2023-05-03T05:57:51;56113.53;;;10.26;nan
7105;BME280;3594;42.152;24.714;2023-05-03T06:00:17;55589.16;;;10.37;nan
7105;BME280;3594;42.152;24.714;2023-05-03T06:02:44;55632.63;;;10.72;nan
7105;BME280;3594;42.152;24.714;2023-05-03T06:05:10;55869.41;;;10.76;nan
7105;BME280;3594;42.152;24.714;2023-05-03T06:07:36;57671.44;;;11.11;nan
7105;BME280;3594;42.152;24.714;2023-05-03T06:10:02;56855.69;;;10.90;nan
7105;BME280;3594;42.152;24.714;2023-05-03T06:12:28;57946.47;;;11.34;nan
7105;BME280;3594;42.152;24.714;2023-05-03T06:14:53;58276.03;;;11.34;nan
7105;BME280;3594;42.152;24.714;2023-05-03T06:17:19;59298.72;;;11.81;nan
7105;BME280;3594;42.152;24.714;2023-05-03T06:19:47;59856.53;;;11.95;nan
7105;BME280;3594;42.152;24.714;2023-05-03T06:22:13;59778.47;;;11.92;nan
7105;BME280;3594;42.152;24.714;2023-05-03T06:24:39;59722.91;;;11.58;nan
7105;BME280;3594;42.152;24.714;2023-05-03T06:27:04;59748.56;;;12.21;nan
7105;BME280;3594;42.152;24.714;2023-05-03T06:29:30;59957.94;;;12.51;nan
7105;BME280;3594;42.152;24.714;2023-05-03T06:31:55;60432.22;;;12.95;nan
7105;BME280;3594;42.152;24.714;2023-05-03T06:34:21;60732.72;;;12.96;nan
7105;BME280;3594;42.152;24.714;2023-05-03T06:36:47;60556.84;;;12.73;nan
7105;BME280;3594;42.152;24.714;2023-05-03T06:39:13;60669.78;;;12.80;nan
7105;BME280;3594;42.152;24.714;2023-05-03T06:41:38;60555.28;;;12.95;nan
7105;BME280;3594;42.152;24.714;2023-05-03T06:44:03;60583.63;;;13.18;nan
7105;BME280;3594;42.152;24.714;2023-05-03T06:46:30;60703.19;;;13.24;nan
7105;BME280;3594;42.152;24.714;2023-05-03T06:48:55;60762.28;;;13.36;nan
7105;BME280;3594;42.152;24.714;2023-05-03T06:51:25;60714.00;;;13.25;nan
7105;BME280;3594;42.152;24.714;2023-05-03T06:53:59;60814.56;;;13.79;nan
7105;BME280;3594;42.152;24.714;2023-05-03T06:56:31;60890.22;;;13.91;nan
7105;BME280;3594;42.152;24.714;2023-05-03T06:58:56;60867.72;;;13.71;nan
7105;BME280;3594;42.152;24.714;2023-05-03T07:01:21;60974.19;;;14.57;nan
7105;BME280;3594;42.152;24.714;2023-05-03T07:03:47;61028.63;;;14.83;nan
7105;BME280;3594;42.152;24.714;2023-05-03T07:06:12;61149.31;;;15.50;nan
7105;BME280;3594;42.152;24.714;2023-05-03T07:08:38;61185.22;;;15.80;nan
7105;BME280;3594;42.152;24.714;2023-05-03T07:11:03;61265.44;;;16.10;nan
7105;BME280;3594;42.152;24.714;2023-05-03T07:13:29;61325.06;;;16.45;nan
7105;BME280;3594;42.152;24.714;2023-05-03T07:15:55;61306.25;;;16.58;nan
7105;BME280;3594;42.152;24.714;2023-05-03T07:18:20;61258.13;;;15.83;nan
7105;BME280;3594;42.152;24.714;2023-05-03T07:20:45;61221.66;;;15.73;nan
7105;BME280;3594;42.152;24.714;2023-05-03T07:23:11;61219.22;;;15.43;nan
7105;BME280;3594;42.152;24.714;2023-05-03T07:25:36;61190.31;;;14.85;nan
7105;BME280;3594;42.152;24.714;2023-05-03T07:28:03;61115.53;;;14.41;nan
7105;BME280;3594;42.152;24.714;2023-05-03T07:30:29;61074.91;;;14.26;nan
7105;BME280;3594;42.152;24.714;2023-05-03T07:32:54;61116.47;;;14.56;nan
7105;BME280;3594;42.152;24.714;2023-05-03T07:35:20;61098.59;;;14.68;nan
7105;BME280;3594;42.152;24.714;2023-05-03T07:37:47;61169.00;;;15.35;nan
7105;BME280;3594;42.152;24.714;2023-05-03T07:40:12;61182.69;;;15.38;nan
7105;BME280;3594;42.152;24.714;2023-05-03T07:42:38;61195.44;;;15.27;nan
7105;BME280;3594;42.152;24.714;2023-05-03T07:45:03;61179.09;;;15.49;nan
7105;BME280;3594;42.152;24.714;2023-05-03T07:47:30;61195.69;;;15.29;nan
7105;BME280;3594;42.152;24.714;2023-05-03T07:49:55;61117.94;;;14.92;nan
7105;BME280;3594;42.152;24.714;2023-05-03T07:52:21;61147.66;;;14.91;nan
7105;BME280;3594;42.152;24.714;2023-05-03T07:54:46;61177.78;;;15.41;nan
7105;BME280;3594;42.152;24.714;2023-05-03T07:57:14;61194.09;;;15.60;nan
7105;BME280;3594;42.152;24.714;2023-05-03T07:59:43;61192.59;;;15.45;nan
7105;BME280;3594;42.152;24.714;2023-05-03T08:02:08;61136.50;;;14.92;nan
7105;BME280;3594;42.152;24.714;2023-05-03T08:04:34;61243.41;;;15.12;nan
7105;BME280;3594;42.152;24.714;2023-05-03T08:07:02;61174.78;;;15.31;nan
7105;BME280;3594;42.152;24.714;2023-05-03T08:09:28;61196.94;;;15.42;nan
7105;BME280;3594;42.152;24.714;2023-05-03T08:11:55;61153.09;;;15.10;nan
7105;BME280;3594;42.152;24.714;2023-05-03T08:14:22;61155.50;;;15.02;nan
7105;BME280;3594;42.152;24.714;2023-05-03T08:16:47;61161.03;;;15.33;nan
7105;BME280;3594;42.152;24.714;2023-05-03T08:19:13;61234.09;;;14.60;nan
7105;BME280;3594;42.152;24.714;2023-05-03T08:21:38;61233.72;;;15.70;nan
7105;BME280;3594;42.152;24.714;2023-05-03T08:24:04;61302.13;;;16.27;nan
7105;BME280;3594;42.152;24.714;2023-05-03T08:26:33;61229.97;;;16.43;nan
7105;BME280;3594;42.152;24.714;2023-05-03T08:28:59;61300.81;;;16.19;nan
7105;BME280;3594;42.152;24.714;2023-05-03T08:31:26;61257.72;;;16.10;nan
7105;BME280;3594;42.152;24.714;2023-05-03T08:33:52;61344.16;;;16.51;nan
7105;BME280;3594;42.152;24.714;2023-05-03T08:36:17;61405.91;;;17.17;nan
7105;BME280;3594;42.152;24.714;2023-05-03T08:38:43;61382.31;;;17.24;nan
7105;BME280;3594;42.152;24.714;2023-05-03T08:41:29;61449.19;;;17.58;nan
7105;BME280;3594;42.152;24.714;2023-05-03T08:43:55;61483.13;;;17.73;nan
7105;BME280;3594;42.152;24.714;2023-05-03T08:46:21;61485.69;;;17.73;nan
7105;BME280;3594;42.152;24.714;2023-05-03T08:48:48;61423.03;;;17.60;nan
7105;BME280;3594;42.152;24.714;2023-05-03T08:51:16;61517.41;;;17.43;nan
7105;BME280;3594;42.152;24.714;2023-05-03T08:53:42;61568.31;;;17.56;nan
7105;BME280;3594;42.152;24.714;2023-05-03T08:56:09;61493.19;;;18.07;nan
7105;BME280;3594;42.152;24.714;2023-05-03T08:58:35;61549.91;;;18.53;nan
7105;BME280;3594;42.152;24.714;2023-05-03T09:01:04;61476.63;;;18.01;nan
7105;BME280;3594;42.152;24.714;2023-05-03T09:03:31;61379.22;;;17.19;nan
7105;BME280;3594;42.152;24.714;2023-05-03T09:05:56;61284.59;;;16.48;nan
7105;BME280;3594;42.152;24.714;2023-05-03T09:08:26;61270.28;;;16.12;nan
7105;BME280;3594;42.152;24.714;2023-05-03T09:10:52;61203.94;;;16.08;nan
7105;BME280;3594;42.152;24.714;2023-05-03T09:13:18;61290.63;;;16.30;nan
7105;BME280;3594;42.152;24.714;2023-05-03T09:15:51;61409.72;;;17.14;nan
7105;BME280;3594;42.152;24.714;2023-05-03T09:18:18;61436.72;;;17.47;nan
7105;BME280;3594;42.152;24.714;2023-05-03T09:20:45;61623.03;;;18.44;nan
7105;BME280;3594;42.152;24.714;2023-05-03T09:23:28;61499.19;;;18.42;nan
7105;BME280;3594;42.152;24.714;2023-05-03T09:25:55;61587.69;;;18.96;nan
7105;BME280;3594;42.152;24.714;2023-05-03T09:28:21;61651.84;;;19.49;nan
7105;BME280;3594;42.152;24.714;2023-05-03T09:30:47;61688.25;;;19.39;nan
7105;BME280;3594;42.152;24.714;2023-05-03T09:33:13;61601.31;;;19.08;nan
7105;BME280;3594;42.152;24.714;2023-05-03T09:35:56;61549.19;;;18.62;nan
7105;BME280;3594;42.152;24.714;2023-05-03T09:38:29;61486.97;;;18.18;nan
7105;BME280;3594;42.152;24.714;2023-05-03T09:40:56;61572.38;;;18.13;nan
7105;BME280;3594;42.152;24.714;2023-05-03T09:43:22;61474.75;;;18.09;nan
7105;BME280;3594;42.152;24.714;2023-05-03T09:45:47;61493.34;;;17.98;nan
7105;BME280;3594;42.152;24.714;2023-05-03T09:48:12;61372.06;;;17.36;nan
7105;BME280;3594;42.152;24.714;2023-05-03T09:50:39;61475.63;;;17.91;nan
7105;BME280;3594;42.152;24.714;2023-05-03T09:53:06;61559.88;;;19.08;nan
7105;BME280;3594;42.152;24.714;2023-05-03T09:55:39;61662.94;;;19.56;nan
7105;BME280;3594;42.152;24.714;2023-05-03T09:58:06;61763.63;;;20.32;nan
7105;BME280;3594;42.152;24.714;2023-05-03T10:00:39;61706.94;;;19.93;nan
7105;BME280;3594;42.152;24.714;2023-05-03T10:03:10;61675.63;;;20.18;nan
7105;BME280;3594;42.152;24.714;2023-05-03T10:05:42;61663.34;;;19.82;nan
7105;BME280;3594;42.152;24.714;2023-05-03T10:08:09;61707.59;;;19.89;nan
7105;BME280;3594;42.152;24.714;2023-05-03T10:10:37;61707.25;;;19.75;nan
7105;BME280;3594;42.152;24.714;2023-05-03T10:13:04;61623.56;;;19.19;nan
7105;BME280;3594;42.152;24.714;2023-05-03T10:15:30;61568.84;;;19.05;nan
7105;BME280;3594;42.152;24.714;2023-05-03T10:17:57;61537.22;;;18.56;nan
7105;BME280;3594;42.152;24.714;2023-05-03T10:20:38;61570.22;;;18.76;nan
7105;BME280;3594;42.152;24.714;2023-05-03T10:25:31;61442.81;;;17.62;nan
7105;BME280;3594;42.152;24.714;2023-05-03T10:28:03;61454.38;;;17.75;nan
7105;BME280;3594;42.152;24.714;2023-05-03T10:30:29;61423.63;;;17.40;nan
7105;BME280;3594;42.152;24.714;2023-05-03T10:32:58;61588.34;;;17.40;nan
7105;BME280;3594;42.152;24.714;2023-05-03T10:35:28;61398.53;;;17.48;nan
7105;BME280;3594;42.152;24.714;2023-05-03T10:37:54;61486.53;;;17.92;nan
7105;BME280;3594;42.152;24.714;2023-05-03T10:40:23;61488.81;;;17.94;nan
7105;BME280;3594;42.152;24.714;2023-05-03T10:42:53;61547.28;;;18.37;nan
7105;BME280;3594;42.152;24.714;2023-05-03T10:45:27;61614.72;;;18.81;nan
7105;BME280;3594;42.152;24.714;2023-05-03T10:50:41;61659.06;;;19.48;nan
7105;BME280;3594;42.152;24.714;2023-05-03T10:53:07;61642.44;;;19.42;nan
7105;BME280;3594;42.152;24.714;2023-05-03T10:55:34;61701.41;;;19.63;nan
7105;BME280;3594;42.152;24.714;2023-05-03T10:58:01;61730.13;;;19.86;nan
7105;BME280;3594;42.152;24.714;2023-05-03T11:00:37;61715.03;;;20.07;nan
7105;BME280;3594;42.152;24.714;2023-05-03T11:05:53;61578.47;;;19.13;nan
7105;BME280;3594;42.152;24.714;2023-05-03T11:08:22;61554.94;;;18.62;nan
7105;BME280;3594;42.152;24.714;2023-05-03T11:10:56;61473.41;;;18.22;nan
7105;BME280;3594;42.152;24.714;2023-05-03T11:13:23;61519.84;;;17.94;nan
7105;BME280;3594;42.152;24.714;2023-05-03T11:15:49;61467.16;;;17.84;nan
7105;BME280;3594;42.152;24.714;2023-05-03T11:18:14;61428.78;;;17.40;nan
7105;BME280;3594;42.152;24.714;2023-05-03T11:20:40;61458.69;;;17.55;nan
7105;BME280;3594;42.152;24.714;2023-05-03T11:23:06;61439.28;;;17.31;nan
7105;BME280;3594;42.152;24.714;2023-05-03T11:25:31;61401.19;;;17.27;nan
7105;BME280;3594;42.152;24.714;2023-05-03T11:28:01;61457.47;;;17.43;nan
7105;BME280;3594;42.152;24.714;2023-05-03T11:30:28;61427.28;;;17.46;nan
7105;BME280;3594;42.152;24.714;2023-05-03T11:32:54;61483.19;;;17.68;nan
7105;BME280;3594;42.152;24.714;2023-05-03T11:35:20;61452.03;;;17.61;nan
7105;BME280;3594;42.152;24.714;2023-05-03T11:37:48;61487.91;;;17.79;nan
7105;BME280;3594;42.152;24.714;2023-05-03T11:40:15;61471.91;;;17.53;nan
7105;BME280;3594;42.152;24.714;2023-05-03T11:42:55;61391.97;;;17.28;nan
7105;BME280;3594;42.152;24.714;2023-05-03T11:45:45;61404.97;;;17.23;nan
7105;BME280;3594;42.152;24.714;2023-05-03T11:48:10;61376.38;;;17.16;nan
7105;BME280;3594;42.152;24.714;2023-05-03T11:50:50;61347.50;;;17.11;nan
7105;BME280;3594;42.152;24.714;2023-05-03T11:53:18;61506.56;;;17.96;nan
7105;BME280;3594;42.152;24.714;2023-05-03T11:55:45;61530.16;;;18.31;nan
7105;BME280;3594;42.152;24.714;2023-05-03T11:58:20;61544.53;;;18.30;nan
7105;BME280;3594;42.152;24.714;2023-05-03T12:00:47;61489.19;;;17.87;nan
7105;BME280;3594;42.152;24.714;2023-05-03T12:03:21;61472.44;;;17.58;nan
7105;BME280;3594;42.152;24.714;2023-05-03T12:05:48;61397.53;;;17.21;nan
7105;BME280;3594;42.152;24.714;2023-05-03T12:08:14;61366.09;;;16.79;nan
7105;BME280;3594;42.152;24.714;2023-05-03T12:10:41;61333.34;;;16.66;nan
7105;BME280;3594;42.152;24.714;2023-05-03T12:13:07;61399.47;;;16.89;nan
7105;BME280;3594;42.152;24.714;2023-05-03T12:15:34;61313.69;;;16.56;nan
7105;BME280;3594;42.152;24.714;2023-05-03T12:18:03;61287.31;;;16.39;nan
7105;BME280;3594;42.152;24.714;2023-05-03T12:20:29;61272.75;;;16.01;nan
7105;BME280;3594;42.152;24.714;2023-05-03T12:22:59;61307.94;;;16.23;nan
7105;BME280;3594;42.152;24.714;2023-05-03T12:25:27;61219.25;;;15.80;nan
7105;BME280;3594;42.152;24.714;2023-05-03T12:27:52;61214.56;;;15.69;nan
7105;BME280;3594;42.152;24.714;2023-05-03T12:30:18;61299.41;;;15.99;nan
7105;BME280;3594;42.152;24.714;2023-05-03T12:32:44;61469.81;;;15.93;nan
7105;BME280;3594;42.152;24.714;2023-05-03T12:35:09;61304.06;;;15.94;nan
7105;BME280;3594;42.152;24.714;2023-05-03T12:37:35;61279.50;;;16.27;nan
7105;BME280;3594;42.152;24.714;2023-05-03T12:40:05;61327.13;;;16.40;nan
7105;BME280;3594;42.152;24.714;2023-05-03T12:42:31;61554.16;;;16.31;nan
7105;BME280;3594;42.152;24.714;2023-05-03T12:44:57;61493.09;;;16.34;nan
7105;BME280;3594;42.152;24.714;2023-05-03T12:47:22;61347.66;;;16.65;nan
7105;BME280;3594;42.152;24.714;2023-05-03T12:49:48;61298.03;;;16.32;nan
7105;BME280;3594;42.152;24.714;2023-05-03T12:52:13;61341.47;;;16.39;nan
7105;BME280;3594;42.152;24.714;2023-05-03T12:54:39;61328.19;;;16.66;nan
7105;BME280;3594;42.152;24.714;2023-05-03T12:57:06;61392.66;;;16.46;nan
7105;BME280;3594;42.152;24.714;2023-05-03T12:59:31;61357.25;;;16.95;nan
7105;BME280;3594;42.152;24.714;2023-05-03T13:01:57;61472.16;;;17.19;nan
7105;BME280;3594;42.152;24.714;2023-05-03T13:04:23;61387.13;;;17.26;nan
7105;BME280;3594;42.152;24.714;2023-05-03T13:06:48;61413.63;;;17.38;nan
7105;BME280;3594;42.152;24.714;2023-05-03T13:09:15;61388.56;;;17.25;nan
7105;BME280;3594;42.152;24.714;2023-05-03T13:11:41;61392.44;;;17.17;nan
7105;BME280;3594;42.152;24.714;2023-05-03T13:14:08;61361.84;;;16.94;nan
7105;BME280;3594;42.152;24.714;2023-05-03T13:16:33;61408.72;;;17.04;nan
7105;BME280;3594;42.152;24.714;2023-05-03T13:19:02;61383.31;;;17.13;nan
7105;BME280;3594;42.152;24.714;2023-05-03T13:21:28;61450.94;;;17.55;nan
7105;BME280;3594;42.152;24.714;2023-05-03T13:23:54;61443.88;;;17.67;nan
7105;BME280;3594;42.152;24.714;2023-05-03T13:26:19;61499.88;;;18.18;nan
7105;BME280;3594;42.152;24.714;2023-05-03T13:28:46;61665.94;;;17.77;nan
7105;BME280;3594;42.152;24.714;2023-05-03T13:31:11;61479.59;;;17.95;nan
7105;BME280;3594;42.152;24.714;2023-05-03T13:33:37;61466.72;;;17.74;nan
7105;BME280;3594;42.152;24.714;2023-05-03T13:36:03;61372.66;;;17.69;nan
7105;BME280;3594;42.152;24.714;2023-05-03T13:38:28;61425.25;;;17.46;nan
7105;BME280;3594;42.152;24.714;2023-05-03T13:40:54;61435.09;;;17.04;nan
7105;BME280;3594;42.152;24.714;2023-05-03T13:43:19;61425.56;;;16.91;nan